sensor_id;sensor_type;location;lat;lon;timestamp;pressure;altitude;pressure_sealevel;temperature;humidity
46876;BME280;32866;50.160;14.768;2023-08-07T00:02:11;98228.66;;;14.83;100.00
46876;BME280;32866;50.160;14.768;2023-08-07T00:04:37;98234.34;;;14.63;100.00
46876;BME280;32866;50.160;14.768;2023-08-07T00:07:03;98218.69;;;14.48;100.00
46876;BME280;32866;50.160;14.768;2023-08-07T00:09:30;98216.88;;;14.40;100.00
46876;BME280;32866;50.160;14.768;2023-08-07T00:11:56;98217.31;;;14.33;100.00
46876;BME280;32866;50.160;14.768;2023-08-07T00:14:22;98217.53;;;14.23;100.00
46876;BME280;32866;50.160;14.768;2023-08-07T00:16:48;98222.00;;;14.21;100.00
46876;BME280;32866;50.160;14.768;2023-08-07T00:19:14;98225.47;;;14.16;100.00
46876;BME280;32866;50.160;14.768;2023-08-07T00:21:40;98185.97;;;13.87;100.00
46876;BME280;32866;50.160;14.768;2023-08-07T00:24:07;98190.16;;;13.77;100.00
46876;BME280;32866;50.160;14.768;2023-08-07T00:26:33;98220.41;;;14.03;100.00
46876;BME280;32866;50.160;14.768;2023-08-07T00:28:59;98222.13;;;14.00;100.00
46876;BME280;32866;50.160;14.768;2023-08-07T00:31:25;98197.19;;;13.78;100.00
46876;BME280;32866;50.160;14.768;2023-08-07T00:33:51;98226.63;;;13.98;100.00
46876;BME280;32866;50.160;14.768;2023-08-07T00:36:19;98224.34;;;13.96;100.00
46876;BME280;32866;50.160;14.768;2023-08-07T00:38:45;98175.00;;;13.61;100.00
46876;BME280;32866;50.160;14.768;2023-08-07T00:41:11;98175.50;;;13.59;100.00
46876;BME280;32866;50.160;14.768;2023-08-07T00:43:37;98215.81;;;13.94;100.00
46876;BME280;32866;50.160;14.768;2023-08-07T00:46:03;98198.66;;;13.79;100.00
46876;BME280;32866;50.160;14.768;2023-08-07T00:48:31;98183.56;;;13.68;100.00
46876;BME280;32866;50.160;14.768;2023-08-07T00:50:57;98179.97;;;13.57;100.00
46876;BME280;32866;50.160;14.768;2023-08-07T00:53:23;98176.69;;;13.52;100.00
46876;BME280;32866;50.160;14.768;2023-08-07T00:55:49;98219.56;;;13.91;100.00
46876;BME280;32866;50.160;14.768;2023-08-07T00:58:15;98227.81;;;13.91;100.00
46876;BME280;32866;50.160;14.768;2023-08-07T01:00:42;98228.78;;;13.88;100.00
46876;BME280;32866;50.160;14.768;2023-08-07T01:03:08;98231.81;;;13.90;100.00
46876;BME280;32866;50.160;14.768;2023-08-07T01:05:37;98220.22;;;13.80;100.00
46876;BME280;32866;50.160;14.768;2023-08-07T01:08:03;98225.22;;;13.82;100.00
46876;BME280;32866;50.160;14.768;2023-08-07T01:13:37;98201.53;;;13.64;100.00
46876;BME280;32866;50.160;14.768;2023-08-07T01:16:18;98235.00;;;13.83;100.00
46876;BME280;32866;50.160;14.768;2023-08-07T01:18:46;98210.28;;;13.62;100.00
46876;BME280;32866;50.160;14.768;2023-08-07T01:21:19;98256.84;;;13.92;100.00
46876;BME280;32866;50.160;14.768;2023-08-07T01:23:46;98250.59;;;13.91;100.00
46876;BME280;32866;50.160;14.768;2023-08-07T01:26:14;98256.84;;;13.92;100.00
46876;BME280;32866;50.160;14.768;2023-08-07T01:28:46;98227.13;;;13.70;100.00
46876;BME280;32866;50.160;14.768;2023-08-07T01:31:16;98230.38;;;13.68;100.00
46876;BME280;32866;50.160;14.768;2023-08-07T01:33:56;98260.63;;;13.95;100.00
46876;BME280;32866;50.160;14.768;2023-08-07T01:36:23;98239.47;;;13.80;100.00
46876;BME280;32866;50.160;14.768;2023-08-07T01:38:50;98262.91;;;13.96;100.00
46876;BME280;32866;50.160;14.768;2023-08-07T01:41:19;98253.13;;;13.95;100.00
46876;BME280;32866;50.160;14.768;2023-08-07T01:43:45;98251.13;;;13.96;100.00
46876;BME280;32866;50.160;14.768;2023-08-07T01:46:11;98257.41;;;13.96;100.00
46876;BME280;32866;50.160;14.768;2023-08-07T01:48:37;98237.75;;;13.83;100.00
46876;BME280;32866;50.160;14.768;2023-08-07T01:51:03;98218.88;;;13.70;100.00
46876;BME280;32866;50.160;14.768;2023-08-07T01:53:29;98259.88;;;13.94;100.00
46876;BME280;32866;50.160;14.768;2023-08-07T01:55:54;98227.13;;;13.70;100.00
46876;BME280;32866;50.160;14.768;2023-08-07T01:58:20;98247.97;;;13.77;100.00
46876;BME280;32866;50.160;14.768;2023-08-07T02:00:46;98256.59;;;13.90;100.00
46876;BME280;32866;50.160;14.768;2023-08-07T02:03:12;98256.47;;;13.79;100.00
46876;BME280;32866;50.160;14.768;2023-08-07T02:05:38;98260.56;;;13.89;100.00
46876;BME280;32866;50.160;14.768;2023-08-07T02:08:04;98218.75;;;13.59;100.00
46876;BME280;32866;50.160;14.768;2023-08-07T02:10:30;98270.13;;;13.94;100.00
46876;BME280;32866;50.160;14.768;2023-08-07T02:12:57;98263.88;;;13.93;100.00
46876;BME280;32866;50.160;14.768;2023-08-07T02:15:25;98219.53;;;13.59;100.00
46876;BME280;32866;50.160;14.768;2023-08-07T02:17:51;98232.31;;;13.62;100.00
46876;BME280;32866;50.160;14.768;2023-08-07T02:20:17;98224.50;;;13.55;100.00
46876;BME280;32866;50.160;14.768;2023-08-07T02:22:42;98262.81;;;13.85;100.00
46876;BME280;32866;50.160;14.768;2023-08-07T02:25:08;98233.97;;;13.54;100.00
46876;BME280;32866;50.160;14.768;2023-08-07T02:27:34;98230.22;;;13.51;100.00
46876;BME280;32866;50.160;14.768;2023-08-07T02:30:00;98279.00;;;13.77;100.00
46876;BME280;32866;50.160;14.768;2023-08-07T02:32:29;98269.97;;;13.77;100.00
46876;BME280;32866;50.160;14.768;2023-08-07T02:34:55;98277.00;;;13.78;100.00
46876;BME280;32866;50.160;14.768;2023-08-07T02:37:21;98276.19;;;13.71;100.00
46876;BME280;32866;50.160;14.768;2023-08-07T02:39:47;98276.19;;;13.71;100.00
46876;BME280;32866;50.160;14.768;2023-08-07T02:42:13;98234.16;;;13.45;100.00
46876;BME280;32866;50.160;14.768;2023-08-07T02:44:39;98280.66;;;13.69;100.00
46876;BME280;32866;50.160;14.768;2023-08-07T02:47:05;98270.13;;;13.67;100.00
46876;BME280;32866;50.160;14.768;2023-08-07T02:49:31;98222.22;;;13.27;100.00
46876;BME280;32866;50.160;14.768;2023-08-07T02:51:57;98243.06;;;13.34;100.00
46876;BME280;32866;50.160;14.768;2023-08-07T02:54:23;98282.84;;;13.59;100.00
46876;BME280;32866;50.160;14.768;2023-08-07T02:56:49;98282.28;;;13.55;100.00
46876;BME280;32866;50.160;14.768;2023-08-07T02:59:15;98290.53;;;13.55;100.00
46876;BME280;32866;50.160;14.768;2023-08-07T03:01:43;98277.25;;;13.53;100.00
46876;BME280;32866;50.160;14.768;2023-08-07T03:04:10;98243.88;;;13.20;100.00
46876;BME280;32866;50.160;14.768;2023-08-07T03:06:36;98256.19;;;13.24;100.00
46876;BME280;32866;50.160;14.768;2023-08-07T03:10:59;98271.31;;;13.34;100.00
46876;BME280;32866;50.160;14.768;2023-08-07T03:13:25;98284.91;;;13.44;100.00
46876;BME280;32866;50.160;14.768;2023-08-07T03:15:59;98275.22;;;13.28;100.00
46876;BME280;32866;50.160;14.768;2023-08-07T03:18:25;98245.47;;;13.06;100.00
46876;BME280;32866;50.160;14.768;2023-08-07T03:20:51;98238.44;;;13.05;100.00
46876;BME280;32866;50.160;14.768;2023-08-07T03:23:17;98228.41;;;13.02;100.00
46876;BME280;32866;50.160;14.768;2023-08-07T03:25:43;98289.53;;;13.32;100.00
46876;BME280;32866;50.160;14.768;2023-08-07T03:28:09;98264.56;;;13.15;100.00
46876;BME280;32866;50.160;14.768;2023-08-07T03:30:35;98258.53;;;13.11;100.00
46876;BME280;32866;50.160;14.768;2023-08-07T03:33:01;98293.72;;;13.27;100.00
46876;BME280;32866;50.160;14.768;2023-08-07T03:35:27;98274.34;;;13.16;100.00
46876;BME280;32866;50.160;14.768;2023-08-07T03:37:53;98290.41;;;13.23;100.00
46876;BME280;32866;50.160;14.768;2023-08-07T03:40:19;98288.63;;;13.20;100.00
46876;BME280;32866;50.160;14.768;2023-08-07T03:42:45;98238.19;;;12.82;100.00
46876;BME280;32866;50.160;14.768;2023-08-07T03:45:11;98278.25;;;13.09;100.00
46876;BME280;32866;50.160;14.768;2023-08-07T03:47:37;98295.84;;;13.17;100.00
46876;BME280;32866;50.160;14.768;2023-08-07T03:50:03;98246.13;;;12.80;100.00
46876;BME280;32866;50.160;14.768;2023-08-07T03:52:29;98244.72;;;12.85;100.00
46876;BME280;32866;50.160;14.768;2023-08-07T03:54:55;98300.59;;;13.17;100.00
46876;BME280;32866;50.160;14.768;2023-08-07T03:57:21;98303.84;;;13.15;100.00
46876;BME280;32866;50.160;14.768;2023-08-07T03:59:47;98310.09;;;13.16;100.00
46876;BME280;32866;50.160;14.768;2023-08-07T04:02:13;98264.63;;;12.79;100.00
46876;BME280;32866;50.160;14.768;2023-08-07T04:04:39;98307.75;;;13.09;100.00
46876;BME280;32866;50.160;14.768;2023-08-07T04:07:05;98313.31;;;13.14;100.00
46876;BME280;32866;50.160;14.768;2023-08-07T04:09:31;98293.44;;;13.05;100.00
46876;BME280;32866;50.160;14.768;2023-08-07T04:11:57;98268.69;;;12.84;100.00
46876;BME280;32866;50.160;14.768;2023-08-07T04:14:23;98272.19;;;12.85;100.00
46876;BME280;32866;50.160;14.768;2023-08-07T04:16:49;98311.31;;;13.15;100.00
46876;BME280;32866;50.160;14.768;2023-08-07T04:19:15;98314.06;;;13.15;100.00
46876;BME280;32866;50.160;14.768;2023-08-07T04:21:41;98286.69;;;12.85;100.00
46876;BME280;32866;50.160;14.768;2023-08-07T04:24:07;98278.91;;;12.84;100.00
46876;BME280;32866;50.160;14.768;2023-08-07T04:26:39;98292.53;;;12.93;100.00
46876;BME280;32866;50.160;14.768;2023-08-07T04:29:05;98324.31;;;13.14;100.00
46876;BME280;32866;50.160;14.768;2023-08-07T04:31:31;98325.84;;;13.15;100.00
46876;BME280;32866;50.160;14.768;2023-08-07T04:33:57;98324.31;;;13.14;100.00
46876;BME280;32866;50.160;14.768;2023-08-07T04:36:24;98324.59;;;13.16;100.00
46876;BME280;32866;50.160;14.768;2023-08-07T04:38:50;98324.13;;;13.18;100.00
46876;BME280;32866;50.160;14.768;2023-08-07T04:41:16;98288.00;;;12.90;100.00
46876;BME280;32866;50.160;14.768;2023-08-07T04:43:42;98305.06;;;12.94;100.00
46876;BME280;32866;50.160;14.768;2023-08-07T04:46:09;98320.53;;;13.12;100.00
46876;BME280;32866;50.160;14.768;2023-08-07T04:48:36;98330.34;;;13.18;100.00
46876;BME280;32866;50.160;14.768;2023-08-07T04:51:02;98336.16;;;13.21;100.00
46876;BME280;32866;50.160;14.768;2023-08-07T04:53:28;98337.66;;;13.22;100.00
46876;BME280;32866;50.160;14.768;2023-08-07T04:55:54;98342.19;;;13.25;100.00
46876;BME280;32866;50.160;14.768;2023-08-07T04:58:20;98332.72;;;13.26;100.00
46876;BME280;32866;50.160;14.768;2023-08-07T05:00:46;98309.94;;;13.05;100.00
46876;BME280;32866;50.160;14.768;2023-08-07T05:03:12;98337.75;;;13.27;100.00
46876;BME280;32866;50.160;14.768;2023-08-07T05:05:38;98333.47;;;13.26;100.00
46876;BME280;32866;50.160;14.768;2023-08-07T05:08:04;98309.94;;;13.05;100.00
46876;BME280;32866;50.160;14.768;2023-08-07T05:10:31;98318.81;;;13.14;100.00
46876;BME280;32866;50.160;14.768;2023-08-07T05:12:57;98337.59;;;13.16;100.00
46876;BME280;32866;50.160;14.768;2023-08-07T05:15:23;98345.00;;;13.30;100.00
46876;BME280;32866;50.160;14.768;2023-08-07T05:17:50;98304.09;;;12.97;100.00
46876;BME280;32866;50.160;14.768;2023-08-07T05:20:17;98305.88;;;13.00;100.00
46876;BME280;32866;50.160;14.768;2023-08-07T05:22:43;98360.84;;;13.35;100.00
46876;BME280;32866;50.160;14.768;2023-08-07T05:25:09;98371.84;;;13.35;100.00
46876;BME280;32866;50.160;14.768;2023-08-07T05:27:37;98317.44;;;13.04;100.00
46876;BME280;32866;50.160;14.768;2023-08-07T05:30:03;98365.41;;;13.39;100.00
46876;BME280;32866;50.160;14.768;2023-08-07T05:32:30;98364.44;;;13.42;100.00
46876;BME280;32866;50.160;14.768;2023-08-07T05:34:58;98360.59;;;13.33;100.00
46876;BME280;32866;50.160;14.768;2023-08-07T05:37:24;98383.56;;;13.51;100.00
46876;BME280;32866;50.160;14.768;2023-08-07T05:39:50;98384.84;;;13.55;100.00
46876;BME280;32866;50.160;14.768;2023-08-07T05:42:16;98388.19;;;13.60;100.00
46876;BME280;32866;50.160;14.768;2023-08-07T05:44:42;98385.47;;;13.65;100.00
46876;BME280;32866;50.160;14.768;2023-08-07T05:47:08;98375.81;;;13.49;100.00
46876;BME280;32866;50.160;14.768;2023-08-07T05:49:34;98400.75;;;13.66;100.00
46876;BME280;32866;50.160;14.768;2023-08-07T05:52:00;98401.03;;;13.68;100.00
46876;BME280;32866;50.160;14.768;2023-08-07T05:54:26;98396.09;;;13.52;100.00
46876;BME280;32866;50.160;14.768;2023-08-07T05:56:52;98408.53;;;13.68;100.00
46876;BME280;32866;50.160;14.768;2023-08-07T05:59:18;98396.97;;;13.64;100.00
46876;BME280;32866;50.160;14.768;2023-08-07T06:01:44;98373.94;;;13.41;100.00
46876;BME280;32866;50.160;14.768;2023-08-07T06:04:10;98392.31;;;13.49;100.00
46876;BME280;32866;50.160;14.768;2023-08-07T06:06:36;98420.25;;;13.63;100.00
46876;BME280;32866;50.160;14.768;2023-08-07T06:09:02;98381.91;;;13.39;100.00
46876;BME280;32866;50.160;14.768;2023-08-07T06:11:29;98387.50;;;13.44;100.00
46876;BME280;32866;50.160;14.768;2023-08-07T06:13:55;98425.53;;;13.66;100.00
46876;BME280;32866;50.160;14.768;2023-08-07T06:16:21;98398.09;;;13.51;100.00
46876;BME280;32866;50.160;14.768;2023-08-07T06:18:47;98406.13;;;13.55;100.00
46876;BME280;32866;50.160;14.768;2023-08-07T06:21:13;98419.94;;;13.61;100.00
46876;BME280;32866;50.160;14.768;2023-08-07T06:23:39;98396.84;;;13.52;100.00
46876;BME280;32866;50.160;14.768;2023-08-07T06:26:05;98404.91;;;13.56;100.00
46876;BME280;32866;50.160;14.768;2023-08-07T06:28:34;98414.06;;;13.68;100.00
46876;BME280;32866;50.160;14.768;2023-08-07T06:31:06;98400.19;;;13.62;100.00
46876;BME280;32866;50.160;14.768;2023-08-07T06:33:33;98439.69;;;14.00;100.00
46876;BME280;32866;50.160;14.768;2023-08-07T06:35:59;98449.31;;;14.10;100.00
46876;BME280;32866;50.160;14.768;2023-08-07T06:38:25;98442.88;;;14.19;100.00
46876;BME280;32866;50.160;14.768;2023-08-07T06:40:51;98426.53;;;14.10;100.00
46876;BME280;32866;50.160;14.768;2023-08-07T06:43:17;98438.94;;;14.26;100.00
46876;BME280;32866;50.160;14.768;2023-08-07T06:45:46;98422.16;;;14.24;100.00
46876;BME280;32866;50.160;14.768;2023-08-07T06:48:12;98437.34;;;14.40;100.00
46876;BME280;32866;50.160;14.768;2023-08-07T06:50:38;98428.47;;;14.30;100.00
46876;BME280;32866;50.160;14.768;2023-08-07T06:53:04;98419.72;;;14.32;100.00
46876;BME280;32866;50.160;14.768;2023-08-07T06:55:30;98452.16;;;14.69;100.00
46876;BME280;32866;50.160;14.768;2023-08-07T06:57:56;98428.97;;;14.55;100.00
46876;BME280;32866;50.160;14.768;2023-08-07T07:00:22;98455.03;;;14.86;100.00
46876;BME280;32866;50.160;14.768;2023-08-07T07:02:48;98446.94;;;14.76;100.00
46876;BME280;32866;50.160;14.768;2023-08-07T07:05:14;98476.47;;;15.02;100.00
46876;BME280;32866;50.160;14.768;2023-08-07T07:07:40;98464.13;;;14.92;100.00
46876;BME280;32866;50.160;14.768;2023-08-07T07:10:06;98450.75;;;14.84;100.00
46876;BME280;32866;50.160;14.768;2023-08-07T07:12:32;98472.53;;;15.14;100.00
46876;BME280;32866;50.160;14.768;2023-08-07T07:14:58;98492.47;;;15.30;100.00
46876;BME280;32866;50.160;14.768;2023-08-07T07:17:24;98480.22;;;15.36;100.00
46876;BME280;32866;50.160;14.768;2023-08-07T07:19:50;98494.56;;;15.46;100.00
46876;BME280;32866;50.160;14.768;2023-08-07T07:22:16;98502.47;;;15.65;100.00
46876;BME280;32866;50.160;14.768;2023-08-07T07:24:42;98508.34;;;15.78;100.00
46876;BME280;32866;50.160;14.768;2023-08-07T07:27:08;98519.94;;;15.88;100.00
46876;BME280;32866;50.160;14.768;2023-08-07T07:29:34;98510.91;;;15.87;100.00
46876;BME280;32866;50.160;14.768;2023-08-07T07:31:59;98516.13;;;15.85;100.00
46876;BME280;32866;50.160;14.768;2023-08-07T07:34:25;98515.28;;;15.68;100.00
46876;BME280;32866;50.160;14.768;2023-08-07T07:36:51;98525.59;;;15.73;100.00
46876;BME280;32866;50.160;14.768;2023-08-07T07:39:20;98517.72;;;15.54;100.00
46876;BME280;32866;50.160;14.768;2023-08-07T07:41:45;98540.34;;;15.58;100.00
46876;BME280;32866;50.160;14.768;2023-08-07T07:44:11;98540.78;;;15.51;100.00
46876;BME280;32866;50.160;14.768;2023-08-07T07:46:38;98515.22;;;15.19;100.00
46876;BME280;32866;50.160;14.768;2023-08-07T07:49:04;98510.91;;;15.12;100.00
46876;BME280;32866;50.160;14.768;2023-08-07T07:51:31;98557.28;;;15.40;100.00
46876;BME280;32866;50.160;14.768;2023-08-07T07:53:58;98538.06;;;15.19;100.00
46876;BME280;32866;50.160;14.768;2023-08-07T07:56:24;98569.56;;;15.39;100.00
46876;BME280;32866;50.160;14.768;2023-08-07T07:58:50;98539.97;;;15.08;100.00
46876;BME280;32866;50.160;14.768;2023-08-07T08:01:16;98574.00;;;15.25;100.00
46876;BME280;32866;50.160;14.768;2023-08-07T08:03:43;98534.75;;;14.83;100.00
46876;BME280;32866;50.160;14.768;2023-08-07T08:06:12;98585.63;;;15.09;100.00
46876;BME280;32866;50.160;14.768;2023-08-07T08:08:39;98554.22;;;14.74;100.00
46876;BME280;32866;50.160;14.768;2023-08-07T08:11:05;98578.69;;;14.93;100.00
46876;BME280;32866;50.160;14.768;2023-08-07T08:13:31;98579.41;;;14.88;100.00
46876;BME280;32866;50.160;14.768;2023-08-07T08:15:57;98586.88;;;14.81;100.00
46876;BME280;32866;50.160;14.768;2023-08-07T08:18:23;98556.47;;;14.50;100.00
46876;BME280;32866;50.160;14.768;2023-08-07T08:20:49;98563.47;;;14.51;100.00
46876;BME280;32866;50.160;14.768;2023-08-07T08:23:15;98601.34;;;14.76;100.00
46876;BME280;32866;50.160;14.768;2023-08-07T08:25:41;98590.31;;;14.76;100.00
46876;BME280;32866;50.160;14.768;2023-08-07T08:28:07;98587.56;;;14.76;100.00
46876;BME280;32866;50.160;14.768;2023-08-07T08:30:33;98605.38;;;15.01;100.00
46876;BME280;32866;50.160;14.768;2023-08-07T08:32:59;98594.41;;;15.07;100.00
46876;BME280;32866;50.160;14.768;2023-08-07T08:35:25;98598.34;;;15.27;100.00
46876;BME280;32866;50.160;14.768;2023-08-07T08:37:51;98606.53;;;15.47;100.00
46876;BME280;32866;50.160;14.768;2023-08-07T08:40:17;98599.09;;;15.65;100.00
46876;BME280;32866;50.160;14.768;2023-08-07T08:42:45;98601.78;;;15.85;100.00
46876;BME280;32866;50.160;14.768;2023-08-07T08:45:13;98593.00;;;15.87;100.00
46876;BME280;32866;50.160;14.768;2023-08-07T08:47:41;98605.53;;;16.31;100.00
46876;BME280;32866;50.160;14.768;2023-08-07T08:50:11;98596.63;;;16.76;100.00
46876;BME280;32866;50.160;14.768;2023-08-07T08:52:43;98568.78;;;16.96;100.00
46876;BME280;32866;50.160;14.768;2023-08-07T08:55:11;98608.03;;;17.74;100.00
46876;BME280;32866;50.160;14.768;2023-08-07T08:57:38;98607.22;;;18.07;100.00
46876;BME280;32866;50.160;14.768;2023-08-07T09:00:06;98601.59;;;18.30;100.00
46876;BME280;32866;50.160;14.768;2023-08-07T09:02:43;98613.66;;;18.38;100.00
46876;BME280;32866;50.160;14.768;2023-08-07T09:05:09;98611.31;;;18.59;100.00
46876;BME280;32866;50.160;14.768;2023-08-07T09:07:35;98591.25;;;18.42;100.00
46876;BME280;32866;50.160;14.768;2023-08-07T09:10:02;98595.97;;;18.52;100.00
46876;BME280;32866;50.160;14.768;2023-08-07T09:12:29;98621.16;;;18.54;100.00
46876;BME280;32866;50.160;14.768;2023-08-07T09:14:58;98623.28;;;18.90;100.00
46876;BME280;32866;50.160;14.768;2023-08-07T09:17:27;98621.44;;;19.04;100.00
46876;BME280;32866;50.160;14.768;2023-08-07T09:19:53;98609.59;;;18.50;100.00
46876;BME280;32866;50.160;14.768;2023-08-07T09:22:19;98643.47;;;18.32;100.00
46876;BME280;32866;50.160;14.768;2023-08-07T09:24:46;98637.47;;;18.05;100.00
46876;BME280;32866;50.160;14.768;2023-08-07T09:27:12;98632.97;;;17.91;100.00
46876;BME280;32866;50.160;14.768;2023-08-07T09:29:39;98598.97;;;17.62;100.00
46876;BME280;32866;50.160;14.768;2023-08-07T09:34:42;98661.69;;;17.65;100.00
46876;BME280;32866;50.160;14.768;2023-08-07T09:37:09;98613.34;;;17.43;100.00
46876;BME280;32866;50.160;14.768;2023-08-07T09:39:36;98649.34;;;17.83;100.00
46876;BME280;32866;50.160;14.768;2023-08-07T09:42:13;98670.00;;;17.88;100.00
46876;BME280;32866;50.160;14.768;2023-08-07T09:44:39;98653.09;;;17.74;100.00
46876;BME280;32866;50.160;14.768;2023-08-07T09:47:11;98676.81;;;17.87;100.00
46876;BME280;32866;50.160;14.768;2023-08-07T09:49:38;98660.66;;;17.74;100.00
46876;BME280;32866;50.160;14.768;2023-08-07T09:52:05;98665.72;;;17.75;100.00
46876;BME280;32866;50.160;14.768;2023-08-07T09:54:33;98661.44;;;17.97;100.00
46876;BME280;32866;50.160;14.768;2023-08-07T09:57:01;98648.94;;;18.43;100.00
46876;BME280;32866;50.160;14.768;2023-08-07T09:59:27;98652.47;;;18.49;100.00
46876;BME280;32866;50.160;14.768;2023-08-07T10:01:54;98676.94;;;18.45;100.00
46876;BME280;32866;50.160;14.768;2023-08-07T10:04:21;98681.28;;;18.24;100.00
46876;BME280;32866;50.160;14.768;2023-08-07T10:06:48;98675.28;;;17.97;100.00
46876;BME280;32866;50.160;14.768;2023-08-07T10:09:15;98674.78;;;17.82;100.00
46876;BME280;32866;50.160;14.768;2023-08-07T10:11:41;98654.13;;;17.49;100.00
46876;BME280;32866;50.160;14.768;2023-08-07T10:14:08;98700.94;;;17.86;100.00
46876;BME280;32866;50.160;14.768;2023-08-07T10:16:35;98658.16;;;17.70;100.00
46876;BME280;32866;50.160;14.768;2023-08-07T10:19:06;98696.59;;;18.47;100.00
46876;BME280;32866;50.160;14.768;2023-08-07T10:21:35;98692.53;;;19.18;100.00
46876;BME280;32866;50.160;14.768;2023-08-07T10:24:03;98704.63;;;19.57;100.00
46876;BME280;32866;50.160;14.768;2023-08-07T10:26:32;98696.97;;;19.69;100.00
46876;BME280;32866;50.160;14.768;2023-08-07T10:29:00;98699.75;;;19.69;100.00
46876;BME280;32866;50.160;14.768;2023-08-07T10:31:28;98683.00;;;19.80;100.00
46876;BME280;32866;50.160;14.768;2023-08-07T10:33:55;98656.16;;;19.88;100.00
46876;BME280;32866;50.160;14.768;2023-08-07T10:36:21;98663.34;;;19.78;100.00
46876;BME280;32866;50.160;14.768;2023-08-07T10:39:05;98705.03;;;19.72;100.00
46876;BME280;32866;50.160;14.768;2023-08-07T10:41:38;98705.94;;;19.50;100.00
46876;BME280;32866;50.160;14.768;2023-08-07T10:44:04;98693.47;;;19.26;100.00
46876;BME280;32866;50.160;14.768;2023-08-07T10:46:46;98683.78;;;19.03;100.00
46876;BME280;32866;50.160;14.768;2023-08-07T10:49:30;98704.28;;;18.88;100.00
46876;BME280;32866;50.160;14.768;2023-08-07T10:51:57;98700.75;;;18.82;100.00
46876;BME280;32866;50.160;14.768;2023-08-07T10:54:24;98696.78;;;18.72;100.00
46876;BME280;32866;50.160;14.768;2023-08-07T10:56:54;98704.34;;;18.66;100.00
46876;BME280;32866;50.160;14.768;2023-08-07T10:59:22;98675.75;;;18.24;100.00
46876;BME280;32866;50.160;14.768;2023-08-07T11:01:54;98721.34;;;18.34;100.00
46876;BME280;32866;50.160;14.768;2023-08-07T11:04:22;98691.88;;;18.14;100.00
46876;BME280;32866;50.160;14.768;2023-08-07T11:06:50;98696.16;;;18.09;100.00
46876;BME280;32866;50.160;14.768;2023-08-07T11:09:17;98682.06;;;18.07;100.00
46876;BME280;32866;50.160;14.768;2023-08-07T11:11:46;98712.06;;;18.20;100.00
46876;BME280;32866;50.160;14.768;2023-08-07T11:14:14;98711.78;;;18.18;100.00
46876;BME280;32866;50.160;14.768;2023-08-07T11:16:41;98710.28;;;18.11;100.00
46876;BME280;32866;50.160;14.768;2023-08-07T11:19:08;98706.03;;;17.93;100.00
46876;BME280;32866;50.160;14.768;2023-08-07T11:21:35;98662.69;;;17.56;100.00
46876;BME280;32866;50.160;14.768;2023-08-07T11:24:01;98676.28;;;17.49;100.00
46876;BME280;32866;50.160;14.768;2023-08-07T11:26:27;98704.72;;;17.77;100.00
46876;BME280;32866;50.160;14.768;2023-08-07T11:28:54;98707.25;;;17.75;100.00
46876;BME280;32866;50.160;14.768;2023-08-07T11:31:21;98702.72;;;17.84;100.00
46876;BME280;32866;50.160;14.768;2023-08-07T11:33:54;98697.19;;;17.72;100.00
46876;BME280;32866;50.160;14.768;2023-08-07T11:36:21;98716.59;;;17.67;100.00
46876;BME280;32866;50.160;14.768;2023-08-07T11:38:48;98721.59;;;17.46;100.00
46876;BME280;32866;50.160;14.768;2023-08-07T11:41:14;98717.78;;;17.32;100.00
46876;BME280;32866;50.160;14.768;2023-08-07T11:43:41;98732.59;;;17.17;100.00
46876;BME280;32866;50.160;14.768;2023-08-07T11:46:09;98740.09;;;17.00;100.00
46876;BME280;32866;50.160;14.768;2023-08-07T11:48:37;98686.75;;;16.39;100.00
46876;BME280;32866;50.160;14.768;2023-08-07T11:51:04;98743.16;;;16.59;100.00
46876;BME280;32866;50.160;14.768;2023-08-07T11:53:40;98724.53;;;16.54;100.00
46876;BME280;32866;50.160;14.768;2023-08-07T11:56:08;98743.56;;;16.89;100.00
46876;BME280;32866;50.160;14.768;2023-08-07T11:58:41;98687.78;;;16.96;100.00
46876;BME280;32866;50.160;14.768;2023-08-07T12:01:12;98734.97;;;17.58;100.00
46876;BME280;32866;50.160;14.768;2023-08-07T12:03:42;98733.72;;;17.76;100.00
46876;BME280;32866;50.160;14.768;2023-08-07T12:06:09;98736.47;;;17.82;100.00
46876;BME280;32866;50.160;14.768;2023-08-07T12:08:39;98737.75;;;17.92;100.00
46876;BME280;32866;50.160;14.768;2023-08-07T12:11:07;98737.75;;;17.98;100.00
46876;BME280;32866;50.160;14.768;2023-08-07T12:13:37;98745.56;;;17.94;100.00
46876;BME280;32866;50.160;14.768;2023-08-07T12:16:04;98743.78;;;17.85;100.00
46876;BME280;32866;50.160;14.768;2023-08-07T12:18:30;98725.16;;;17.63;100.00
46876;BME280;32866;50.160;14.768;2023-08-07T12:21:04;98743.78;;;17.79;100.00
46876;BME280;32866;50.160;14.768;2023-08-07T12:23:35;98741.25;;;17.76;100.00
46876;BME280;32866;50.160;14.768;2023-08-07T12:26:03;98740.50;;;17.58;100.00
46876;BME280;32866;50.160;14.768;2023-08-07T12:28:31;98734.16;;;17.35;100.00
46876;BME280;32866;50.160;14.768;2023-08-07T12:30:57;98756.31;;;17.35;100.00
46876;BME280;32866;50.160;14.768;2023-08-07T12:33:23;98759.78;;;17.19;100.00
46876;BME280;32866;50.160;14.768;2023-08-07T12:35:49;98768.56;;;17.06;100.00
46876;BME280;32866;50.160;14.768;2023-08-07T12:38:15;98783.50;;;16.82;100.00
46876;BME280;32866;50.160;14.768;2023-08-07T12:40:43;98744.53;;;16.37;100.00
46876;BME280;32866;50.160;14.768;2023-08-07T12:43:09;98735.31;;;16.46;100.00
46876;BME280;32866;50.160;14.768;2023-08-07T12:45:34;98766.78;;;16.60;100.00
46876;BME280;32866;50.160;14.768;2023-08-07T12:48:01;98773.78;;;16.49;100.00